Time;durP1;ratioP1;P1;durP2;ratioP2;P2;SDS_P1;SDS_P2;PMS_P1;PMS_P2;Temp;Humidity;BMP_temperature;BMP_pressure;BME280_temperature;BME280_humidity;BME280_pressure;Samples;Min_cycle;Max_cycle;Signal;HPM_P1;HPM_P2
2022/10/18 00:00:56;;;;;;;4.53;4.13;;;18.00;99.90;;;;;;5032127;28;20433;-75
2022/10/18 00:03:21;;;;;;;6.13;5.50;;;18.00;99.90;;;;;;5032152;28;20169;-75
2022/10/18 00:05:48;;;;;;;5.33;4.40;;;18.00;99.90;;;;;;5031693;28;20536;-76
2022/10/18 00:08:14;;;;;;;6.60;5.60;;;18.00;99.90;;;;;;5013959;28;20270;-76
2022/10/18 00:10:40;;;;;;;5.10;4.60;;;17.90;99.90;;;;;;5031938;28;20461;-75
2022/10/18 00:13:05;;;;;;;5.90;4.97;;;18.00;99.90;;;;;;5014168;28;20914;-75
2022/10/18 00:15:31;;;;;;;6.60;4.50;;;17.90;99.90;;;;;;5031723;28;20173;-75
2022/10/18 00:17:56;;;;;;;6.70;4.93;;;17.90;99.90;;;;;;5026410;28;20264;-75
2022/10/18 00:20:22;;;;;;;7.57;5.30;;;17.90;99.90;;;;;;5031044;28;20255;-75
2022/10/18 00:22:47;;;;;;;6.53;5.80;;;17.90;99.90;;;;;;5031886;28;20673;-76
2022/10/18 00:25:13;;;;;;;7.30;5.90;;;17.80;99.90;;;;;;5031804;28;20673;-75
2022/10/18 00:27:38;;;;;;;6.23;5.60;;;17.80;99.90;;;;;;5031928;28;20718;-75
2022/10/18 00:30:04;;;;;;;8.60;6.43;;;17.80;99.90;;;;;;5001030;28;20663;-75
2022/10/18 00:32:34;;;;;;;6.80;6.13;;;17.90;99.90;;;;;;4999627;28;20180;-75
2022/10/18 00:34:59;;;;;;;10.43;8.10;;;17.80;99.90;;;;;;5032018;28;20408;-75
2022/10/18 00:37:25;;;;;;;8.60;6.97;;;17.90;99.90;;;;;;5032328;28;20497;-75
2022/10/18 00:39:50;;;;;;;8.07;5.90;;;17.90;99.90;;;;;;5033789;28;20200;-75
2022/10/18 00:42:18;;;;;;;7.83;6.90;;;17.90;99.90;;;;;;5038700;28;20426;-75
2022/10/18 00:44:43;;;;;;;8.03;7.20;;;17.90;99.90;;;;;;5002690;28;20176;-76
2022/10/18 00:47:11;;;;;;;12.50;7.80;;;17.90;99.90;;;;;;5021523;28;20415;-76
2022/10/18 00:49:42;;;;;;;9.53;7.77;;;17.90;99.90;;;;;;5047506;22;20261;-68
2022/10/18 00:52:16;;;;;;;7.30;6.60;;;17.80;99.90;;;;;;5038523;28;20479;-68
2022/10/18 00:54:43;;;;;;;8.00;6.60;;;17.80;99.90;;;;;;5051648;28;20407;-68
2022/10/18 00:57:09;;;;;;;7.20;6.50;;;17.80;99.90;;;;;;5044497;28;20441;-68
2022/10/18 00:59:35;;;;;;;7.87;7.00;;;17.80;99.90;;;;;;5051929;28;20462;-68
2022/10/18 01:02:02;;;;;;;9.57;7.97;;;17.80;99.90;;;;;;5051895;28;20186;-68
2022/10/18 01:04:27;;;;;;;8.07;7.10;;;17.70;99.90;;;;;;5051596;28;20418;-68
2022/10/18 01:07:15;;;;;;;8.40;7.60;;;17.70;99.90;;;;;;5051667;28;20793;-69
2022/10/18 01:10:05;;;;;;;8.00;6.90;;;17.80;99.90;;;;;;5046893;28;20206;-68
2022/10/18 01:12:39;;;;;;;9.90;7.40;;;17.70;99.90;;;;;;5018964;28;20409;-67
2022/10/18 01:15:12;;;;;;;7.60;6.20;;;17.70;99.90;;;;;;5047397;28;20435;-67
2022/10/18 01:17:52;;;;;;;7.03;6.33;;;17.70;99.90;;;;;;5051541;28;20480;-68
2022/10/18 01:20:29;;;;;;;9.23;7.17;;;17.70;99.90;;;;;;5051439;28;20425;-69
2022/10/18 01:23:06;;;;;;;8.60;7.70;;;17.70;99.90;;;;;;5021013;28;20447;-69
2022/10/18 01:26:12;;;;;;;8.40;6.77;;;17.80;99.90;;;;;;5051359;28;20409;-68
2022/10/18 01:29:02;;;;;;;8.70;7.70;;;17.80;99.90;;;;;;5051298;28;20768;-69
2022/10/18 01:31:36;;;;;;;8.70;7.23;;;17.80;99.90;;;;;;5051231;28;20452;-68
2022/10/18 01:34:06;;;;;;;7.87;7.03;;;17.70;99.90;;;;;;5051188;28;20405;-68
2022/10/18 01:36:39;;;;;;;11.83;7.87;;;17.70;99.90;;;;;;5050984;28;20412;-68
2022/10/18 01:39:10;;;;;;;7.43;6.73;;;17.70;99.90;;;;;;5051170;28;20472;-69
2022/10/18 01:41:39;;;;;;;9.00;6.67;;;17.70;99.90;;;;;;5043351;28;20425;-69
2022/10/18 01:44:08;;;;;;;8.20;6.57;;;17.70;99.90;;;;;;5034227;28;20417;-68
2022/10/18 01:46:36;;;;;;;8.00;6.50;;;17.70;99.90;;;;;;5038240;28;20441;-68
2022/10/18 01:49:02;;;;;;;13.53;8.07;;;17.60;99.90;;;;;;5052273;28;20512;-68
2022/10/18 01:51:30;;;;;;;8.93;6.43;;;17.60;99.90;;;;;;5051939;28;20964;-69
2022/10/18 01:53:56;;;;;;;8.50;7.60;;;17.60;99.90;;;;;;5051107;28;20427;-69
2022/10/18 01:57:04;;;;;;;7.20;6.50;;;17.60;99.90;;;;;;5050633;28;20418;-68
2022/10/18 01:59:48;;;;;;;9.60;7.17;;;17.60;99.90;;;;;;4979474;28;20462;-69
2022/10/18 02:02:44;;;;;;;8.10;7.23;;;17.60;99.90;;;;;;4984697;28;20414;-69
2022/10/18 02:05:21;;;;;;;9.20;7.40;;;17.60;99.90;;;;;;4993790;28;20405;-68
2022/10/18 02:07:59;;;;;;;9.10;7.40;;;17.50;99.90;;;;;;5050718;28;20407;-68
2022/10/18 02:10:45;;;;;;;10.33;9.23;;;17.50;99.90;;;;;;5050231;28;20564;-69
2022/10/18 02:13:14;;;;;;;8.00;7.20;;;17.50;99.90;;;;;;5050717;28;20415;-69
2022/10/18 02:15:43;;;;;;;7.67;6.97;;;17.50;99.90;;;;;;5050182;28;20413;-69
2022/10/18 02:18:17;;;;;;;9.70;7.27;;;17.50;99.90;;;;;;5050262;28;20470;-69
2022/10/18 02:20:44;;;;;;;13.23;8.10;;;17.50;99.90;;;;;;5045776;28;20477;-69
2022/10/18 02:23:12;;;;;;;12.13;8.03;;;17.50;99.90;;;;;;5050444;28;20508;-69
2022/10/18 02:25:38;;;;;;;9.80;8.20;;;17.50;99.90;;;;;;5050926;28;20410;-69
2022/10/18 02:28:04;;;;;;;6.87;6.27;;;17.50;99.90;;;;;;5050949;28;20432;-69
2022/10/18 02:30:39;;;;;;;9.90;8.30;;;17.50;99.90;;;;;;5050290;28;20258;-70
2022/10/18 02:33:15;;;;;;;9.57;8.67;;;17.50;99.90;;;;;;5051289;28;20444;-69
2022/10/18 02:35:46;;;;;;;9.07;7.17;;;17.40;99.90;;;;;;5050419;28;20416;-69
2022/10/18 02:38:14;;;;;;;8.67;7.80;;;17.40;99.90;;;;;;5050211;28;20405;-68
2022/10/18 02:40:39;;;;;;;8.27;7.50;;;17.40;99.90;;;;;;5049960;28;20429;-68
2022/10/18 02:43:05;;;;;;;10.17;8.00;;;17.40;99.90;;;;;;5035419;28;20427;-68
2022/10/18 02:45:32;;;;;;;8.40;7.60;;;17.40;99.90;;;;;;5042047;28;20193;-68
2022/10/18 02:47:57;;;;;;;8.90;8.10;;;17.40;99.90;;;;;;5050366;28;20864;-69
2022/10/18 02:50:23;;;;;;;13.57;9.00;;;17.40;99.90;;;;;;5049899;28;20583;-69
2022/10/18 02:52:48;;;;;;;10.00;7.87;;;17.30;99.90;;;;;;5050113;28;20257;-69
2022/10/18 02:55:14;;;;;;;10.27;7.57;;;17.30;99.90;;;;;;5051781;28;20175;-69
2022/10/18 02:57:40;;;;;;;9.00;8.10;;;17.30;99.90;;;;;;5054013;28;20220;-69
2022/10/18 03:00:06;;;;;;;8.77;7.20;;;17.30;99.90;;;;;;5053959;28;20210;-69
2022/10/18 03:02:32;;;;;;;9.40;8.50;;;17.30;99.90;;;;;;5054196;28;20548;-69
2022/10/18 03:04:57;;;;;;;7.80;7.00;;;17.30;99.90;;;;;;5053558;28;20410;-69
2022/10/18 03:07:23;;;;;;;11.03;7.97;;;17.30;99.90;;;;;;5053772;28;20182;-69
2022/10/18 03:09:48;;;;;;;8.83;7.83;;;17.20;99.90;;;;;;5053543;28;20340;-68
2022/10/18 03:12:14;;;;;;;12.60;9.67;;;17.10;99.90;;;;;;5053555;28;20171;-68
2022/10/18 03:14:40;;;;;;;8.70;7.80;;;17.10;99.90;;;;;;5053274;28;20289;-68
2022/10/18 03:17:05;;;;;;;8.93;8.00;;;17.10;99.90;;;;;;5053506;28;20990;-68
2022/10/18 03:19:31;;;;;;;11.83;8.40;;;17.10;99.90;;;;;;5053493;28;20640;-68
2022/10/18 03:21:56;;;;;;;7.70;6.83;;;17.10;99.90;;;;;;5054171;28;20583;-69
2022/10/18 03:24:22;;;;;;;11.00;9.23;;;17.10;99.90;;;;;;5054608;28;20518;-68
2022/10/18 03:26:47;;;;;;;9.13;8.27;;;17.20;99.90;;;;;;5054250;28;20197;-68
2022/10/18 03:29:13;;;;;;;8.90;7.97;;;17.20;99.90;;;;;;5054214;28;20756;-68
2022/10/18 03:31:38;;;;;;;9.00;7.70;;;17.20;99.90;;;;;;5053630;28;20181;-68
2022/10/18 03:34:04;;;;;;;10.33;7.30;;;17.20;99.90;;;;;;5053249;28;20537;-68
2022/10/18 03:36:29;;;;;;;7.37;6.27;;;17.00;99.90;;;;;;5052947;28;20186;-68
2022/10/18 03:38:55;;;;;;;7.07;6.37;;;17.00;99.90;;;;;;5053259;28;20185;-68
2022/10/18 03:41:20;;;;;;;7.27;6.60;;;17.00;99.90;;;;;;5048206;28;20302;-68
2022/10/18 03:43:46;;;;;;;7.13;6.40;;;17.00;99.90;;;;;;5037261;28;20172;-69
2022/10/18 03:46:12;;;;;;;6.60;6.00;;;16.90;99.90;;;;;;5047798;28;20529;-68
2022/10/18 03:48:37;;;;;;;7.93;6.73;;;16.90;99.90;;;;;;5052610;28;20174;-68
2022/10/18 03:51:03;;;;;;;9.70;6.83;;;16.90;99.90;;;;;;5052347;28;20206;-70
2022/10/18 03:53:29;;;;;;;6.90;6.20;;;16.90;99.90;;;;;;5052679;28;20217;-68
2022/10/18 03:55:54;;;;;;;8.60;7.80;;;16.90;99.90;;;;;;5052480;28;20525;-68
2022/10/18 03:58:21;;;;;;;8.60;7.70;;;16.80;99.90;;;;;;5052585;28;20178;-68
2022/10/18 04:00:53;;;;;;;10.80;7.17;;;16.80;99.90;;;;;;5052309;28;20191;-68
2022/10/18 04:03:21;;;;;;;8.37;7.53;;;16.80;99.90;;;;;;5052315;28;20407;-69
2022/10/18 04:05:47;;;;;;;8.03;7.17;;;16.80;99.90;;;;;;5051832;28;20414;-69
2022/10/18 04:08:13;;;;;;;8.50;7.67;;;16.70;99.90;;;;;;5051918;28;20404;-69
2022/10/18 04:10:39;;;;;;;10.03;7.47;;;16.70;99.90;;;;;;5051683;28;20601;-69
2022/10/18 04:13:06;;;;;;;10.10;7.27;;;16.60;99.90;;;;;;5053901;28;20493;-68
2022/10/18 04:15:32;;;;;;;8.63;6.90;;;16.60;99.90;;;;;;5052469;28;20173;-68
2022/10/18 04:17:58;;;;;;;8.37;7.50;;;16.60;99.90;;;;;;5052223;28;20460;-68
2022/10/18 04:20:24;;;;;;;9.60;7.30;;;16.50;99.90;;;;;;5052198;28;20435;-69
2022/10/18 04:22:50;;;;;;;11.30;7.50;;;16.50;99.90;;;;;;5052618;28;20243;-68
2022/10/18 04:25:16;;;;;;;9.37;6.87;;;16.40;99.90;;;;;;5052254;28;20478;-69
2022/10/18 04:27:41;;;;;;;7.27;6.57;;;16.40;99.90;;;;;;5052288;28;20418;-68
2022/10/18 04:30:08;;;;;;;8.07;6.73;;;16.40;99.90;;;;;;5052500;28;20256;-69
2022/10/18 04:32:34;;;;;;;9.03;7.23;;;16.40;99.90;;;;;;5052266;28;20178;-68
2022/10/18 04:35:00;;;;;;;7.60;6.80;;;16.40;99.90;;;;;;5052303;28;20972;-69
2022/10/18 04:37:26;;;;;;;9.60;7.10;;;16.30;99.90;;;;;;5052921;28;20806;-69
2022/10/18 04:39:52;;;;;;;8.23;6.10;;;16.30;99.90;;;;;;5052418;28;20433;-69
2022/10/18 04:42:17;;;;;;;10.30;6.50;;;16.30;99.90;;;;;;5040906;28;20179;-69
2022/10/18 04:44:43;;;;;;;6.67;6.00;;;16.30;99.90;;;;;;5039578;28;20249;-69
2022/10/18 04:47:08;;;;;;;8.43;6.30;;;16.30;99.90;;;;;;5051629;28;20244;-69
2022/10/18 04:49:34;;;;;;;8.47;6.40;;;16.20;99.90;;;;;;5051528;28;20600;-68
2022/10/18 04:51:59;;;;;;;8.33;6.83;;;16.20;99.90;;;;;;5051813;28;20857;-68
2022/10/18 04:54:25;;;;;;;7.93;7.13;;;16.20;99.90;;;;;;5051412;28;20518;-68
2022/10/18 04:56:50;;;;;;;8.80;6.80;;;16.20;99.90;;;;;;5051569;28;20174;-68
2022/10/18 04:59:16;;;;;;;7.17;6.40;;;16.20;99.90;;;;;;5038569;28;20694;-68
2022/10/18 05:01:41;;;;;;;6.83;6.10;;;16.20;99.90;;;;;;5031190;28;20172;-68
2022/10/18 05:04:08;;;;;;;7.90;7.20;;;16.20;99.90;;;;;;5031428;28;20204;-68
2022/10/18 05:06:33;;;;;;;9.20;6.90;;;16.10;99.90;;;;;;5032073;28;20239;-69
2022/10/18 05:08:59;;;;;;;11.57;7.30;;;16.10;99.90;;;;;;5040663;28;20453;-68
2022/10/18 05:11:24;;;;;;;7.50;5.90;;;16.10;99.90;;;;;;5035274;28;20275;-68
2022/10/18 05:13:50;;;;;;;7.60;6.80;;;16.10;99.90;;;;;;5051335;28;20253;-68
2022/10/18 05:16:15;;;;;;;7.80;7.00;;;16.10;99.90;;;;;;5046991;28;20178;-69
2022/10/18 05:18:42;;;;;;;7.70;6.87;;;16.10;99.90;;;;;;5051146;28;20199;-68
2022/10/18 05:21:07;;;;;;;10.07;6.87;;;16.10;99.90;;;;;;5051166;28;20191;-68
2022/10/18 05:23:33;;;;;;;7.07;6.17;;;16.10;99.90;;;;;;5051175;28;20411;-68
2022/10/18 05:26:06;;;;;;;10.53;7.53;;;16.10;99.90;;;;;;5051119;28;20548;-69
2022/10/18 05:28:32;;;;;;;10.03;7.80;;;16.10;99.90;;;;;;5046988;28;20176;-69
2022/10/18 05:31:02;;;;;;;8.13;7.27;;;16.10;99.90;;;;;;5050786;28;20452;-68
2022/10/18 05:33:28;;;;;;;9.60;7.30;;;16.10;99.90;;;;;;5051043;28;21024;-68
2022/10/18 05:35:54;;;;;;;9.80;7.87;;;16.10;99.90;;;;;;5041938;28;20421;-68
2022/10/18 05:38:20;;;;;;;8.53;7.63;;;16.00;99.90;;;;;;5047201;28;20407;-68
2022/10/18 05:40:45;;;;;;;10.53;8.50;;;16.00;99.90;;;;;;5050777;28;20425;-68
2022/10/18 05:43:11;;;;;;;8.90;7.20;;;16.00;99.90;;;;;;5035249;28;20464;-68
2022/10/18 05:45:37;;;;;;;8.73;6.67;;;16.00;99.90;;;;;;5041556;28;20204;-68
2022/10/18 05:48:03;;;;;;;9.37;7.20;;;15.90;99.90;;;;;;5051995;28;20238;-69
2022/10/18 05:50:29;;;;;;;10.03;7.83;;;15.90;99.90;;;;;;5051974;28;20552;-69
2022/10/18 05:52:56;;;;;;;9.53;8.63;;;15.90;99.90;;;;;;5042471;28;20521;-69
2022/10/18 05:55:22;;;;;;;13.20;7.90;;;15.90;99.90;;;;;;5032390;28;20272;-68
2022/10/18 05:57:50;;;;;;;9.13;7.30;;;15.90;99.90;;;;;;5042595;28;20422;-68
2022/10/18 06:00:17;;;;;;;8.13;7.33;;;15.90;99.90;;;;;;5050861;28;20203;-68
2022/10/18 06:02:43;;;;;;;10.43;7.50;;;15.90;99.90;;;;;;5034912;28;20824;-72
2022/10/18 06:05:09;;;;;;;8.80;7.90;;;15.90;99.90;;;;;;5050871;28;20445;-70
2022/10/18 06:07:34;;;;;;;8.63;7.73;;;15.90;99.90;;;;;;5051205;28;20721;-71
2022/10/18 06:10:00;;;;;;;8.00;6.90;;;15.90;99.90;;;;;;5049528;28;20207;-69
2022/10/18 06:12:29;;;;;;;8.57;6.70;;;15.90;99.90;;;;;;5044508;28;20213;-68
2022/10/18 06:14:54;;;;;;;8.53;6.90;;;15.90;99.90;;;;;;5034284;28;20642;-68
2022/10/18 06:17:20;;;;;;;10.20;7.30;;;15.90;99.90;;;;;;5051487;28;20466;-69
2022/10/18 06:19:45;;;;;;;8.97;8.07;;;15.90;99.90;;;;;;5051088;28;20210;-69
2022/10/18 06:22:11;;;;;;;13.63;8.10;;;15.90;99.90;;;;;;5049960;28;20675;-69
2022/10/18 06:24:37;;;;;;;8.83;7.83;;;15.90;99.90;;;;;;5050944;28;20268;-68
2022/10/18 06:27:07;;;;;;;8.90;7.83;;;15.90;99.90;;;;;;5050679;28;20287;-69
2022/10/18 06:29:34;;;;;;;7.83;7.03;;;15.90;99.90;;;;;;5043077;28;20568;-67
2022/10/18 06:31:59;;;;;;;8.50;7.10;;;15.90;99.90;;;;;;5038296;28;20408;-69
2022/10/18 06:34:25;;;;;;;9.27;7.27;;;15.90;99.90;;;;;;5039550;28;20792;-69
2022/10/18 06:36:50;;;;;;;8.70;6.93;;;15.90;99.90;;;;;;5054369;28;20176;-68
2022/10/18 06:39:16;;;;;;;8.93;6.00;;;15.90;99.90;;;;;;5042467;28;20191;-69
2022/10/18 06:41:41;;;;;;;7.70;6.97;;;15.90;99.90;;;;;;5038095;28;20196;-67
2022/10/18 06:44:12;;;;;;;7.73;6.57;;;15.80;99.90;;;;;;5044720;28;20625;-69
2022/10/18 06:46:39;;;;;;;9.23;7.03;;;15.80;99.90;;;;;;5049027;28;20264;-71
2022/10/18 06:49:05;;;;;;;11.93;6.50;;;15.80;99.90;;;;;;5052412;28;20445;-69
2022/10/18 06:51:31;;;;;;;8.77;7.37;;;15.90;99.90;;;;;;5084053;22;20557;-76
2022/10/18 06:53:56;;;;;;;8.73;6.80;;;15.90;99.90;;;;;;5047998;28;20174;-76
2022/10/18 06:56:22;;;;;;;10.33;7.87;;;15.90;99.90;;;;;;5047006;28;20639;-75
2022/10/18 06:58:47;;;;;;;8.83;7.93;;;15.90;99.90;;;;;;5053678;28;20533;-79
2022/10/18 07:01:15;;;;;;;10.00;7.60;;;15.90;99.90;;;;;;5036803;28;20217;-75
2022/10/18 07:03:40;;;;;;;10.40;7.97;;;15.90;99.90;;;;;;5037693;28;20639;-75
2022/10/18 07:06:09;;;;;;;8.80;6.50;;;15.90;99.90;;;;;;5036361;28;20400;-74
2022/10/18 07:08:35;;;;;;;9.33;7.60;;;15.90;99.90;;;;;;5033769;28;20188;-75
2022/10/18 07:11:01;;;;;;;8.33;7.47;;;15.90;99.90;;;;;;5035472;28;20473;-75
2022/10/18 07:13:29;;;;;;;9.37;7.33;;;15.90;99.90;;;;;;5038027;28;20411;-75
2022/10/18 07:16:10;;;;;;;13.47;8.40;;;16.00;99.90;;;;;;5023601;28;20180;-75
2022/10/18 07:18:38;;;;;;;9.20;7.97;;;16.00;99.90;;;;;;5020296;28;20754;-76
2022/10/18 07:21:05;;;;;;;8.60;7.73;;;16.00;99.90;;;;;;5022276;28;20817;-74
2022/10/18 07:23:33;;;;;;;7.97;7.23;;;15.90;99.90;;;;;;5022614;28;20417;-75
2022/10/18 07:25:58;;;;;;;10.23;7.67;;;16.00;99.90;;;;;;5030261;28;20428;-72
2022/10/18 07:28:24;;;;;;;11.60;7.73;;;16.00;99.90;;;;;;5035517;28;20476;-76
2022/10/18 07:30:50;;;;;;;6.73;5.90;;;16.00;99.90;;;;;;5054724;28;20205;-76
2022/10/18 07:33:15;;;;;;;9.33;6.90;;;16.00;99.90;;;;;;5049023;28;20173;-75
2022/10/18 07:35:40;;;;;;;10.30;6.17;;;16.00;99.90;;;;;;5053022;28;20170;-75
2022/10/18 07:38:06;;;;;;;8.97;6.30;;;16.00;99.90;;;;;;5041939;28;20166;-75
2022/10/18 07:40:32;;;;;;;9.23;7.30;;;16.00;99.90;;;;;;5048574;28;20194;-75
2022/10/18 07:42:57;;;;;;;9.20;7.10;;;16.00;99.90;;;;;;5037071;28;20263;-74
2022/10/18 07:45:22;;;;;;;8.40;6.17;;;16.00;99.90;;;;;;5045805;28;20200;-76
2022/10/18 07:47:56;;;;;;;9.93;7.13;;;16.10;99.90;;;;;;5044889;28;20654;-73
2022/10/18 07:50:22;;;;;;;13.40;7.20;;;16.10;99.90;;;;;;5048118;28;20588;-70
2022/10/18 07:52:47;;;;;;;10.10;6.87;;;16.10;99.90;;;;;;5037946;28;20513;-76
2022/10/18 07:55:13;;;;;;;7.70;6.30;;;16.20;99.90;;;;;;5046441;28;20897;-72
2022/10/18 07:57:38;;;;;;;10.80;6.60;;;16.20;99.90;;;;;;5047263;28;20486;-73
2022/10/18 08:00:05;;;;;;;13.90;7.57;;;16.20;99.90;;;;;;5043192;28;20202;-69
2022/10/18 08:02:30;;;;;;;12.23;8.43;;;16.20;99.90;;;;;;5050890;28;20204;-69
2022/10/18 08:04:56;;;;;;;9.60;7.27;;;16.10;99.90;;;;;;5040460;28;20421;-72
2022/10/18 08:07:21;;;;;;;8.60;6.80;;;16.20;99.90;;;;;;5040840;28;20207;-72
2022/10/18 08:09:47;;;;;;;9.20;7.83;;;16.10;99.90;;;;;;5038748;28;20220;-72
2022/10/18 08:12:14;;;;;;;8.90;7.20;;;16.00;99.90;;;;;;5046305;28;20512;-72
2022/10/18 08:14:39;;;;;;;8.17;6.67;;;16.10;99.90;;;;;;5052308;28;20579;-72
2022/10/18 08:17:05;;;;;;;9.63;7.17;;;16.20;99.90;;;;;;5044401;28;20469;-72
2022/10/18 08:19:31;;;;;;;9.30;7.47;;;16.10;99.90;;;;;;5040068;28;20600;-71
2022/10/18 08:21:56;;;;;;;9.33;6.90;;;16.10;99.90;;;;;;5043353;28;20183;-71
2022/10/18 08:24:22;;;;;;;8.07;6.67;;;16.10;99.90;;;;;;5048894;28;20216;-72
2022/10/18 08:26:48;;;;;;;8.73;6.23;;;16.10;99.90;;;;;;5047951;28;20178;-71
2022/10/18 08:29:14;;;;;;;10.33;7.03;;;16.00;99.90;;;;;;5049391;28;20178;-71
2022/10/18 08:31:39;;;;;;;10.07;6.57;;;16.00;99.90;;;;;;5039990;28;20468;-72
2022/10/18 08:34:05;;;;;;;11.37;7.80;;;16.00;99.90;;;;;;5045160;28;20204;-71
2022/10/18 08:36:31;;;;;;;9.90;7.40;;;16.00;99.90;;;;;;5051355;28;20180;-72
2022/10/18 08:38:56;;;;;;;11.67;8.30;;;16.10;99.90;;;;;;5040525;28;20171;-72
2022/10/18 08:41:40;;;;;;;10.93;7.60;;;16.10;99.90;;;;;;5044546;28;20220;-72
2022/10/18 08:44:23;;;;;;;10.30;7.13;;;16.10;99.90;;;;;;5036481;28;20185;-73
2022/10/18 08:46:54;;;;;;;9.33;6.30;;;16.10;99.90;;;;;;5030127;28;20976;-73
2022/10/18 08:49:22;;;;;;;10.73;6.23;;;16.00;99.90;;;;;;5044125;28;20436;-73
2022/10/18 08:51:50;;;;;;;8.70;7.10;;;15.90;99.90;;;;;;5037487;28;20460;-73
2022/10/18 08:54:36;;;;;;;7.97;6.00;;;16.00;99.90;;;;;;5038923;28;20434;-73
2022/10/18 08:57:09;;;;;;;6.83;5.77;;;16.00;99.90;;;;;;5032326;28;20424;-72
2022/10/18 08:59:39;;;;;;;8.60;6.33;;;15.90;99.90;;;;;;5033184;28;20811;-72
2022/10/18 09:02:30;;;;;;;7.20;6.40;;;15.90;99.90;;;;;;5022148;28;20542;-71
2022/10/18 09:04:58;;;;;;;6.73;5.80;;;15.90;99.90;;;;;;5021762;28;21158;-71
2022/10/18 09:08:15;;;;;;;7.00;5.07;;;15.90;99.90;;;;;;5022184;28;20416;-71
2022/10/18 09:10:40;;;;;;;7.03;6.33;;;15.80;99.90;;;;;;5003202;28;20493;-71
2022/10/18 09:13:12;;;;;;;5.33;3.47;;;15.70;99.90;;;;;;5028523;28;20415;-73
2022/10/18 09:16:09;;;;;;;7.37;5.10;;;15.70;99.90;;;;;;5031564;28;20184;-70
2022/10/18 09:18:56;;;;;;;7.10;5.60;;;15.80;99.90;;;;;;5011152;28;20448;-71
2022/10/18 09:21:43;;;;;;;7.97;6.07;;;15.80;99.90;;;;;;5019973;28;20783;-70
2022/10/18 09:24:12;;;;;;;6.83;6.10;;;15.80;99.90;;;;;;5022296;28;20419;-71
2022/10/18 09:26:44;;;;;;;7.73;6.67;;;15.90;99.90;;;;;;5023955;28;20441;-71
2022/10/18 09:29:15;;;;;;;10.20;7.27;;;15.90;99.90;;;;;;5036055;28;20428;-70
2022/10/18 09:32:02;;;;;;;8.70;6.53;;;15.80;99.90;;;;;;5051209;28;20836;-72
2022/10/18 09:34:36;;;;;;;10.30;6.67;;;15.80;99.90;;;;;;5048870;28;20402;-71
2022/10/18 09:37:02;;;;;;;8.57;6.43;;;15.90;99.90;;;;;;5050492;28;20414;-71
2022/10/18 09:39:33;;;;;;;8.83;6.57;;;15.80;99.90;;;;;;5037591;28;20431;-71
2022/10/18 09:42:16;;;;;;;8.03;6.33;;;15.80;99.90;;;;;;5038612;28;20418;-72
2022/10/18 09:44:48;;;;;;;7.43;5.67;;;15.70;99.90;;;;;;5036724;28;20942;-72
2022/10/18 09:47:21;;;;;;;8.07;7.30;;;15.60;99.90;;;;;;5047186;28;20414;-72
2022/10/18 09:50:24;;;;;;;7.63;6.00;;;15.60;99.90;;;;;;5047456;28;20468;-72
2022/10/18 09:53:20;;;;;;;15.40;7.33;;;15.70;99.90;;;;;;5022889;28;20904;-72
2022/10/18 09:55:57;;;;;;;8.23;6.40;;;15.70;99.90;;;;;;5019779;28;20483;-71
2022/10/18 09:58:25;;;;;;;7.07;6.03;;;15.80;99.90;;;;;;5023772;28;20415;-71
2022/10/18 10:00:52;;;;;;;9.40;6.70;;;15.90;99.90;;;;;;5018636;28;20824;-72
2022/10/18 10:03:18;;;;;;;6.70;6.03;;;15.80;99.90;;;;;;5019233;28;20420;-71
2022/10/18 10:05:44;;;;;;;10.07;6.80;;;15.80;99.90;;;;;;5024905;28;20400;-71
2022/10/18 10:08:10;;;;;;;7.10;6.40;;;15.80;99.90;;;;;;5026178;28;20227;-71
2022/10/18 10:10:39;;;;;;;9.00;6.10;;;15.80;99.90;;;;;;5031761;28;20490;-71
2022/10/18 10:13:23;;;;;;;7.73;6.67;;;15.80;99.90;;;;;;5031581;28;20772;-71
2022/10/18 10:16:02;;;;;;;9.77;5.93;;;15.80;99.90;;;;;;5025449;28;20919;-72
2022/10/18 10:18:31;;;;;;;8.03;6.10;;;15.80;99.90;;;;;;5032557;28;20485;-69
2022/10/18 10:20:59;;;;;;;7.20;6.50;;;15.80;99.90;;;;;;5029300;28;20921;-71
2022/10/18 10:23:51;;;;;;;9.07;8.17;;;15.80;99.90;;;;;;5037192;28;20444;-72
2022/10/18 10:26:24;;;;;;;7.37;6.60;;;15.70;99.90;;;;;;5022861;28;20477;-74
2022/10/18 10:28:50;;;;;;;8.80;6.70;;;15.70;99.90;;;;;;5024085;28;20778;-76
2022/10/18 10:31:28;;;;;;;10.47;7.67;;;15.70;99.90;;;;;;5022850;28;20446;-71
2022/10/18 10:34:18;;;;;;;8.03;6.90;;;15.80;99.90;;;;;;5025143;28;20412;-73
2022/10/18 10:36:53;;;;;;;8.20;7.40;;;15.80;99.90;;;;;;5027825;28;20405;-70
2022/10/18 10:39:20;;;;;;;9.63;7.83;;;15.80;99.90;;;;;;5029251;28;20461;-71
2022/10/18 10:41:55;;;;;;;10.13;7.10;;;15.80;99.90;;;;;;5027203;28;20534;-73
2022/10/18 10:44:23;;;;;;;8.47;7.37;;;15.80;99.90;;;;;;5028527;28;20415;-72
2022/10/18 10:46:50;;;;;;;13.20;8.57;;;15.80;99.90;;;;;;5031145;28;20523;-73
2022/10/18 10:49:21;;;;;;;10.03;6.80;;;15.80;99.90;;;;;;5027142;28;20411;-72
2022/10/18 10:51:57;;;;;;;7.10;6.40;;;15.60;99.90;;;;;;5021571;28;20463;-72
2022/10/18 10:54:25;;;;;;;12.10;7.00;;;15.70;99.90;;;;;;5021954;28;20411;-72
2022/10/18 10:57:21;;;;;;;13.10;8.30;;;15.80;99.90;;;;;;5024866;28;20426;-72
2022/10/18 10:59:52;;;;;;;8.17;7.23;;;15.80;99.90;;;;;;5027035;28;20998;-72
2022/10/18 11:02:36;;;;;;;7.80;7.00;;;15.80;99.90;;;;;;5027650;28;20412;-68
2022/10/18 11:05:24;;;;;;;7.53;6.77;;;15.70;99.90;;;;;;5029634;28;20411;-72
2022/10/18 11:08:01;;;;;;;9.67;8.60;;;15.70;99.90;;;;;;5028180;28;20444;-73
2022/10/18 11:10:30;;;;;;;8.43;7.20;;;15.80;99.90;;;;;;5036284;28;20465;-72
2022/10/18 11:13:27;;;;;;;10.30;8.10;;;15.90;99.90;;;;;;5044860;28;20400;-72
2022/10/18 11:15:59;;;;;;;8.77;7.90;;;15.90;99.90;;;;;;5032598;28;20437;-70
2022/10/18 11:18:36;;;;;;;8.50;7.60;;;16.00;99.90;;;;;;5053950;28;20856;-72
2022/10/18 11:21:10;;;;;;;10.90;9.03;;;16.00;99.90;;;;;;5053292;28;20426;-70
2022/10/18 11:23:39;;;;;;;9.67;8.10;;;15.90;99.90;;;;;;5053228;28;20414;-66
2022/10/18 11:26:10;;;;;;;8.77;7.87;;;16.00;99.90;;;;;;5048003;28;20424;-65
2022/10/18 11:28:36;;;;;;;8.30;7.40;;;16.00;99.90;;;;;;5042790;28;20497;-65
2022/10/18 11:31:20;;;;;;;12.57;8.10;;;16.00;99.90;;;;;;5023151;28;20581;-65
2022/10/18 11:33:58;;;;;;;9.60;6.90;;;16.00;99.90;;;;;;5051864;28;20280;-66
2022/10/18 11:36:31;;;;;;;8.77;7.87;;;15.90;99.90;;;;;;5039597;28;20416;-67
2022/10/18 11:39:07;;;;;;;9.03;8.13;;;15.90;99.90;;;;;;5050626;28;20477;-67
2022/10/18 11:42:12;;;;;;;7.53;6.20;;;16.00;99.90;;;;;;5028303;28;20447;-67
2022/10/18 11:45:03;;;;;;;7.87;7.07;;;15.90;99.90;;;;;;5034539;28;20446;-68
2022/10/18 11:47:37;;;;;;;8.27;7.17;;;15.80;99.90;;;;;;5032820;28;20433;-68
2022/10/18 11:50:18;;;;;;;9.53;7.20;;;16.00;99.90;;;;;;5031924;28;20470;-69
2022/10/18 11:52:46;;;;;;;7.30;6.20;;;16.10;99.90;;;;;;5047097;28;20403;-69
2022/10/18 11:55:42;;;;;;;9.17;6.97;;;16.20;99.90;;;;;;5052288;28;20406;-70
2022/10/18 11:58:27;;;;;;;7.40;6.70;;;16.10;99.90;;;;;;5040039;28;20443;-70
2022/10/18 12:01:05;;;;;;;12.13;6.97;;;16.00;99.90;;;;;;5025584;28;20431;-72
2022/10/18 12:03:53;;;;;;;7.40;5.87;;;15.80;99.90;;;;;;5032336;28;20423;-70
2022/10/18 12:06:23;;;;;;;8.00;6.57;;;15.90;99.90;;;;;;5047221;28;20427;-70
2022/10/18 12:08:56;;;;;;;8.20;6.83;;;16.00;99.90;;;;;;5051464;28;20830;-76
2022/10/18 12:11:31;;;;;;;8.43;7.03;;;16.20;99.90;;;;;;5036902;28;20455;-71
2022/10/18 12:14:06;;;;;;;7.93;6.73;;;16.30;99.90;;;;;;5046182;28;20878;-70
2022/10/18 12:16:34;;;;;;;7.20;6.50;;;16.30;99.90;;;;;;5037198;28;20412;-72
2022/10/18 12:19:11;;;;;;;6.60;5.83;;;16.20;99.90;;;;;;5052291;28;20419;-72
2022/10/18 12:21:37;;;;;;;6.30;5.63;;;16.10;99.90;;;;;;5048267;28;20459;-70
2022/10/18 12:24:20;;;;;;;7.10;5.37;;;16.00;99.90;;;;;;5051137;28;20515;-69
2022/10/18 12:26:58;;;;;;;6.90;6.00;;;16.00;99.90;;;;;;5035550;28;20426;-70
2022/10/18 12:29:48;;;;;;;7.30;6.07;;;16.10;99.90;;;;;;5025459;28;20426;-70
2022/10/18 12:32:21;;;;;;;6.20;5.60;;;16.20;99.90;;;;;;5031056;28;21064;-70
2022/10/18 12:35:00;;;;;;;6.07;5.20;;;16.20;99.90;;;;;;5022375;28;20416;-77
2022/10/18 12:37:51;;;;;;;6.80;6.10;;;16.30;99.90;;;;;;5023205;28;20421;-72
2022/10/18 12:40:27;;;;;;;7.53;5.70;;;16.20;99.90;;;;;;5036041;28;20424;-73
2022/10/18 12:42:53;;;;;;;7.27;6.57;;;16.20;99.90;;;;;;5046048;28;20402;-72
2022/10/18 12:45:25;;;;;;;5.87;5.37;;;16.40;99.90;;;;;;5042404;28;20870;-72
2022/10/18 12:47:52;;;;;;;9.30;5.97;;;16.40;99.90;;;;;;5051996;28;20178;-73
2022/10/18 12:50:31;;;;;;;9.80;6.60;;;16.50;99.90;;;;;;5043866;28;20469;-72
2022/10/18 12:53:19;;;;;;;6.10;5.60;;;16.50;99.90;;;;;;5042740;22;20495;-77
2022/10/18 12:55:48;;;;;;;7.50;6.30;;;16.30;99.90;;;;;;5011188;28;20443;-76
2022/10/18 12:58:14;;;;;;;7.17;6.03;;;16.30;99.90;;;;;;5031501;28;20911;-74
2022/10/18 13:00:42;;;;;;;6.30;5.00;;;16.30;99.90;;;;;;5024274;28;20445;-78
2022/10/18 13:03:19;;;;;;;5.87;5.23;;;16.30;99.90;;;;;;5030640;28;20215;-77